Time;durP1;ratioP1;P1;durP2;ratioP2;P2;SDS_P1;SDS_P2;PMS_P1;PMS_P2;Temp;Humidity;BMP_temperature;BMP_pressure;BME280_temperature;BME280_humidity;BME280_pressure;Samples;Min_cycle;Max_cycle;Signal;HPM_P1;HPM_P2
2022/04/24 00:01:55;;;;;;;14.77;13.27;;;8.10;99.90;;;;;;5093189;28;20244;-74
2022/04/24 00:04:24;;;;;;;13.73;12.33;;;8.10;99.90;;;;;;5092786;28;20656;-74
2022/04/24 00:06:52;;;;;;;15.73;12.57;;;8.10;99.90;;;;;;5093204;28;20200;-74
2022/04/24 00:09:19;;;;;;;14.83;12.63;;;8.10;99.90;;;;;;5093043;28;20219;-74
2022/04/24 00:11:47;;;;;;;14.20;12.70;;;8.00;99.90;;;;;;5093111;28;20196;-74
2022/04/24 00:14:14;;;;;;;13.97;12.53;;;8.00;99.90;;;;;;5092963;28;20269;-75
2022/04/24 00:16:41;;;;;;;15.50;13.37;;;8.00;99.90;;;;;;5092859;28;20197;-75
2022/04/24 00:19:08;;;;;;;15.13;13.20;;;7.90;99.90;;;;;;5092792;28;20196;-75
2022/04/24 00:21:35;;;;;;;14.70;13.13;;;7.80;99.90;;;;;;5093014;28;20200;-75
2022/04/24 00:24:01;;;;;;;15.07;13.47;;;7.90;99.90;;;;;;5092695;28;20224;-74
2022/04/24 00:26:29;;;;;;;15.87;14.27;;;7.70;99.90;;;;;;5092887;28;20196;-74
2022/04/24 00:28:57;;;;;;;15.13;13.53;;;7.70;99.90;;;;;;5092731;28;20196;-74
2022/04/24 00:31:23;;;;;;;17.80;13.43;;;7.60;99.90;;;;;;5092630;28;20197;-74
2022/04/24 00:33:50;;;;;;;14.90;13.40;;;7.60;99.90;;;;;;5092563;28;20688;-74
2022/04/24 00:36:16;;;;;;;14.97;13.37;;;7.50;99.90;;;;;;5092688;28;20541;-75
2022/04/24 00:38:43;;;;;;;17.50;13.60;;;7.50;99.90;;;;;;5095712;28;20204;-74
2022/04/24 00:41:10;;;;;;;16.63;14.60;;;7.50;99.90;;;;;;5096700;28;20257;-74
2022/04/24 00:43:36;;;;;;;15.63;14.03;;;7.50;99.90;;;;;;5096575;28;20265;-74
2022/04/24 00:46:13;;;;;;;14.63;13.13;;;7.50;99.90;;;;;;5096476;28;20196;-74
2022/04/24 00:48:40;;;;;;;15.17;13.27;;;7.40;99.90;;;;;;5096628;28;20554;-74
2022/04/24 00:51:07;;;;;;;15.13;13.53;;;7.50;99.90;;;;;;5096613;28;20287;-74
2022/04/24 00:53:34;;;;;;;15.13;13.47;;;7.60;99.90;;;;;;5096385;28;20232;-74
2022/04/24 00:56:01;;;;;;;15.53;13.90;;;7.50;99.90;;;;;;5096378;28;20230;-74
2022/04/24 00:58:28;;;;;;;15.10;13.60;;;7.60;99.90;;;;;;5096135;28;20202;-74
2022/04/24 01:00:55;;;;;;;18.23;13.63;;;7.70;99.90;;;;;;5096535;28;20193;-74
2022/04/24 01:03:24;;;;;;;14.50;12.93;;;7.80;99.90;;;;;;5096248;28;20196;-74
2022/04/24 01:05:51;;;;;;;14.87;13.37;;;7.90;99.90;;;;;;5096372;28;20204;-74
2022/04/24 01:08:17;;;;;;;15.50;13.87;;;7.90;99.90;;;;;;5096107;28;20200;-74
2022/04/24 01:10:44;;;;;;;15.43;13.23;;;7.90;99.90;;;;;;5096157;28;20269;-74
2022/04/24 01:13:11;;;;;;;14.53;13.07;;;7.90;99.90;;;;;;5095722;28;20220;-74
2022/04/24 01:15:37;;;;;;;15.27;13.53;;;7.80;99.90;;;;;;5095885;28;20690;-73
2022/04/24 01:18:05;;;;;;;15.40;13.43;;;7.70;99.90;;;;;;5096085;28;20204;-74
2022/04/24 01:20:34;;;;;;;15.93;13.87;;;7.70;99.90;;;;;;5096016;28;20243;-74
2022/04/24 01:23:01;;;;;;;16.37;13.70;;;7.50;99.90;;;;;;5095644;28;20548;-74
2022/04/24 01:25:27;;;;;;;16.20;14.17;;;7.50;99.90;;;;;;5095814;28;20200;-74
2022/04/24 01:27:54;;;;;;;16.30;14.70;;;7.40;99.90;;;;;;5095639;28;20196;-74
2022/04/24 01:30:21;;;;;;;15.87;13.87;;;7.40;99.90;;;;;;5095861;28;20253;-74
2022/04/24 01:32:47;;;;;;;15.87;14.23;;;7.40;99.90;;;;;;5095743;28;20217;-74
2022/04/24 01:35:15;;;;;;;16.33;14.63;;;7.40;99.90;;;;;;5095679;28;20193;-74
2022/04/24 01:37:44;;;;;;;19.70;14.70;;;7.40;99.90;;;;;;5095591;28;20313;-74
2022/04/24 01:40:11;;;;;;;15.40;13.80;;;7.40;99.90;;;;;;5095247;28;20670;-74
2022/04/24 01:42:38;;;;;;;16.83;13.87;;;7.50;99.90;;;;;;5095702;28;20261;-75
2022/04/24 01:45:05;;;;;;;15.23;13.63;;;7.60;99.90;;;;;;5095528;28;20200;-74
2022/04/24 01:47:32;;;;;;;17.30;14.50;;;7.60;99.90;;;;;;5095441;28;20277;-74
2022/04/24 01:49:58;;;;;;;14.93;13.33;;;7.70;99.90;;;;;;5094064;28;20199;-74
2022/04/24 01:52:25;;;;;;;15.23;13.73;;;7.80;99.90;;;;;;5095152;28;20265;-74
2022/04/24 01:54:53;;;;;;;15.07;13.47;;;7.90;99.90;;;;;;5095173;28;20252;-74
2022/04/24 01:57:20;;;;;;;14.87;13.37;;;8.00;99.90;;;;;;5095341;28;20192;-74
2022/04/24 01:59:47;;;;;;;14.60;13.03;;;8.00;99.90;;;;;;5095313;28;20644;-74
2022/04/24 02:02:13;;;;;;;15.57;13.90;;;8.10;99.90;;;;;;5095171;28;20193;-74
2022/04/24 02:04:40;;;;;;;15.10;13.50;;;8.10;99.90;;;;;;5095097;28;20563;-74
2022/04/24 02:07:07;;;;;;;14.70;13.20;;;8.20;99.90;;;;;;5095069;28;20200;-74
2022/04/24 02:09:35;;;;;;;14.17;12.70;;;8.20;99.90;;;;;;5095035;28;20575;-74
2022/04/24 02:12:03;;;;;;;15.30;13.73;;;8.20;99.90;;;;;;5095070;28;20227;-73
2022/04/24 02:14:30;;;;;;;15.73;13.27;;;8.20;99.90;;;;;;5094847;28;20288;-74
2022/04/24 02:16:57;;;;;;;17.27;13.93;;;8.30;99.90;;;;;;5094962;28;20568;-74
2022/04/24 02:19:24;;;;;;;20.17;14.20;;;8.30;99.90;;;;;;5094683;28;20241;-74
2022/04/24 02:21:50;;;;;;;15.33;13.70;;;8.30;99.90;;;;;;5094556;28;20200;-74
2022/04/24 02:24:17;;;;;;;14.97;13.47;;;8.30;99.90;;;;;;5094734;28;20228;-74
2022/04/24 02:26:43;;;;;;;15.07;13.50;;;8.30;99.90;;;;;;5094740;28;20195;-74
2022/04/24 02:29:11;;;;;;;15.07;13.00;;;8.30;99.90;;;;;;5094600;28;20250;-73
2022/04/24 02:31:38;;;;;;;15.37;13.63;;;8.30;99.90;;;;;;5094408;28;20200;-74
2022/04/24 02:34:05;;;;;;;14.33;12.83;;;8.30;99.90;;;;;;5094540;28;20221;-74
2022/04/24 02:36:31;;;;;;;14.67;12.87;;;8.40;99.90;;;;;;5094346;28;20533;-74
2022/04/24 02:38:58;;;;;;;15.17;13.60;;;8.40;99.90;;;;;;5094489;28;20193;-73
2022/04/24 02:41:26;;;;;;;14.93;13.17;;;8.40;99.90;;;;;;5094552;28;20251;-74
2022/04/24 02:43:53;;;;;;;15.70;13.97;;;8.40;99.90;;;;;;5094225;28;20664;-74
2022/04/24 02:46:21;;;;;;;14.93;13.43;;;8.30;99.90;;;;;;5094316;28;20204;-74
2022/04/24 02:48:48;;;;;;;14.83;13.33;;;8.40;99.90;;;;;;5094024;28;20204;-74
2022/04/24 02:51:14;;;;;;;15.57;13.03;;;8.30;99.90;;;;;;5094436;28;20196;-74
2022/04/24 02:53:41;;;;;;;15.03;13.23;;;8.30;99.90;;;;;;5094119;28;20224;-74
2022/04/24 02:56:08;;;;;;;17.57;14.33;;;8.40;99.90;;;;;;5094266;28;20202;-74
2022/04/24 02:58:34;;;;;;;16.07;14.27;;;8.40;99.90;;;;;;5094095;28;20197;-74
2022/04/24 03:01:01;;;;;;;16.90;15.10;;;8.40;99.90;;;;;;5093827;28;20651;-74
2022/04/24 03:03:29;;;;;;;16.07;14.30;;;8.40;99.90;;;;;;5093796;28;20610;-74
2022/04/24 03:05:55;;;;;;;15.23;13.63;;;8.40;99.90;;;;;;5094207;28;20201;-74
2022/04/24 03:08:23;;;;;;;16.80;14.23;;;8.30;99.90;;;;;;5093966;28;20200;-74
2022/04/24 03:10:50;;;;;;;18.77;15.63;;;8.30;99.90;;;;;;5093912;28;20199;-74
2022/04/24 03:13:16;;;;;;;16.30;14.60;;;8.30;99.90;;;;;;5093831;28;20752;-74
2022/04/24 03:15:43;;;;;;;16.37;14.67;;;8.40;99.90;;;;;;5093765;28;20199;-74
2022/04/24 03:18:09;;;;;;;16.77;14.87;;;8.40;99.90;;;;;;5093658;28;20200;-74
2022/04/24 03:20:37;;;;;;;17.47;15.50;;;8.40;99.90;;;;;;5093761;28;20598;-74
2022/04/24 03:23:04;;;;;;;17.93;15.13;;;8.40;99.90;;;;;;5093510;28;20224;-74
2022/04/24 03:25:31;;;;;;;17.57;15.77;;;8.40;99.90;;;;;;5093466;28;20254;-74
2022/04/24 03:27:58;;;;;;;19.57;16.13;;;8.50;99.90;;;;;;5093504;28;20387;-74
2022/04/24 03:30:24;;;;;;;19.37;16.97;;;8.50;99.90;;;;;;5093296;28;20230;-73
2022/04/24 03:32:51;;;;;;;21.07;17.13;;;8.50;99.90;;;;;;5093220;28;20277;-74
2022/04/24 03:35:17;;;;;;;18.53;16.63;;;8.50;99.90;;;;;;5093499;28;20204;-73
2022/04/24 03:37:45;;;;;;;17.67;15.77;;;8.50;99.90;;;;;;5093348;28;20598;-77
2022/04/24 03:40:13;;;;;;;18.13;16.23;;;8.50;99.90;;;;;;5093321;28;20249;-74
2022/04/24 03:42:40;;;;;;;21.63;17.87;;;8.50;99.90;;;;;;5093392;28;20572;-74
2022/04/24 03:45:09;;;;;;;19.63;17.40;;;8.50;99.90;;;;;;5093221;28;20196;-74
2022/04/24 03:47:36;;;;;;;19.17;17.10;;;8.50;99.90;;;;;;5093694;28;20196;-74
2022/04/24 03:50:02;;;;;;;19.73;16.90;;;8.50;99.90;;;;;;5093228;28;20199;-74
2022/04/24 03:52:29;;;;;;;19.63;17.60;;;8.50;99.90;;;;;;5093249;28;20192;-74
2022/04/24 03:54:57;;;;;;;19.70;17.60;;;8.60;99.90;;;;;;5093002;28;20224;-74
2022/04/24 03:57:24;;;;;;;20.30;18.20;;;8.60;99.90;;;;;;5093061;28;20250;-73
2022/04/24 03:59:51;;;;;;;20.63;17.90;;;8.60;99.90;;;;;;5092977;28;20196;-74
2022/04/24 04:02:17;;;;;;;20.83;18.37;;;8.60;99.90;;;;;;5093122;28;20601;-74
2022/04/24 04:04:44;;;;;;;21.07;18.83;;;8.60;99.90;;;;;;5093096;28;20275;-72
2022/04/24 04:07:11;;;;;;;20.87;18.67;;;8.60;99.90;;;;;;5092949;28;20722;-73
2022/04/24 04:09:38;;;;;;;21.37;19.10;;;8.50;99.90;;;;;;5092931;28;20196;-73
2022/04/24 04:12:07;;;;;;;20.80;18.00;;;8.50;99.90;;;;;;5093181;28;20196;-74
2022/04/24 04:14:34;;;;;;;21.63;19.33;;;8.50;99.90;;;;;;5097033;28;20315;-74
2022/04/24 04:17:00;;;;;;;23.77;19.60;;;8.50;99.90;;;;;;5097241;28;20208;-74
2022/04/24 04:19:27;;;;;;;20.97;18.70;;;8.40;99.90;;;;;;5097213;28;20196;-74
2022/04/24 04:21:54;;;;;;;22.50;20.10;;;8.40;99.90;;;;;;5097050;28;20251;-74
2022/04/24 04:24:20;;;;;;;22.80;20.30;;;8.40;99.90;;;;;;5097115;28;20234;-74
2022/04/24 04:26:47;;;;;;;21.27;19.07;;;8.40;99.90;;;;;;5096687;28;20656;-73
2022/04/24 04:29:15;;;;;;;22.90;20.50;;;8.40;99.90;;;;;;5097040;28;20199;-73
2022/04/24 04:31:42;;;;;;;21.90;19.60;;;8.40;99.90;;;;;;5096995;28;20196;-73
2022/04/24 04:34:08;;;;;;;21.03;18.70;;;8.40;99.90;;;;;;5096669;28;20223;-74
2022/04/24 04:36:35;;;;;;;28.27;24.20;;;8.40;99.90;;;;;;5096821;28;20200;-74
2022/04/24 04:39:02;;;;;;;40.73;35.30;;;8.40;99.90;;;;;;5096631;28;20250;-74
2022/04/24 04:41:28;;;;;;;41.00;34.33;;;8.40;99.90;;;;;;5096604;28;20223;-74
2022/04/24 04:43:55;;;;;;;34.27;27.40;;;8.40;99.90;;;;;;5096799;28;20253;-74
2022/04/24 04:46:23;;;;;;;26.87;23.93;;;8.40;99.90;;;;;;5096360;28;20735;-74
2022/04/24 04:48:49;;;;;;;26.30;23.53;;;8.40;99.90;;;;;;5096526;28;20193;-74
2022/04/24 04:51:16;;;;;;;26.67;23.00;;;8.40;99.90;;;;;;5096466;28;20202;-73
2022/04/24 04:53:43;;;;;;;25.83;23.13;;;8.40;99.90;;;;;;5096312;28;20216;-73
2022/04/24 04:56:10;;;;;;;26.47;23.00;;;8.40;99.90;;;;;;5096132;28;20241;-74
2022/04/24 04:58:36;;;;;;;27.03;24.13;;;8.40;99.90;;;;;;5096828;28;20207;-73
2022/04/24 05:01:03;;;;;;;26.17;22.93;;;8.50;99.90;;;;;;5096398;28;20198;-74
2022/04/24 05:03:31;;;;;;;25.77;22.13;;;8.50;99.90;;;;;;5096349;28;20243;-74
2022/04/24 05:05:58;;;;;;;25.00;22.10;;;8.50;99.90;;;;;;5096347;28;20194;-73
2022/04/24 05:08:24;;;;;;;23.57;20.90;;;8.50;99.90;;;;;;5096177;28;20540;-73
2022/04/24 05:10:51;;;;;;;24.53;21.80;;;8.50;99.90;;;;;;5096035;28;20196;-73
2022/04/24 05:13:17;;;;;;;24.77;22.13;;;8.50;99.90;;;;;;5096200;28;20250;-73
2022/04/24 05:15:44;;;;;;;24.00;21.40;;;8.60;99.90;;;;;;5096049;28;20235;-73
2022/04/24 05:18:11;;;;;;;24.60;22.07;;;8.60;99.90;;;;;;5096017;28;20193;-73
2022/04/24 05:20:39;;;;;;;24.60;22.00;;;8.70;99.90;;;;;;5096126;28;20200;-73
2022/04/24 05:23:06;;;;;;;23.43;20.93;;;8.70;99.90;;;;;;5095405;28;20576;-73
2022/04/24 05:25:33;;;;;;;23.40;20.83;;;8.70;99.90;;;;;;5095925;28;20227;-73
2022/04/24 05:28:01;;;;;;;24.83;22.30;;;8.70;99.90;;;;;;5095848;28;20246;-73
2022/04/24 05:30:29;;;;;;;26.13;22.30;;;8.70;99.90;;;;;;5095985;28;20196;-73
2022/04/24 05:32:56;;;;;;;24.93;22.23;;;8.80;99.90;;;;;;5095733;28;20200;-73
2022/04/24 05:35:23;;;;;;;25.33;22.57;;;8.80;99.90;;;;;;5095524;28;20224;-74
2022/04/24 05:37:51;;;;;;;25.83;23.13;;;8.80;99.90;;;;;;5095519;28;20200;-73
2022/04/24 05:40:18;;;;;;;24.97;22.27;;;8.70;99.90;;;;;;5095888;28;20203;-73
2022/04/24 05:42:46;;;;;;;23.20;20.77;;;8.70;99.90;;;;;;5095667;28;20192;-73
2022/04/24 05:45:14;;;;;;;26.07;21.53;;;8.80;99.90;;;;;;5095393;28;20656;-73
2022/04/24 05:47:41;;;;;;;25.30;22.60;;;8.70;99.90;;;;;;5095250;28;20648;-73
2022/04/24 05:50:08;;;;;;;27.20;23.80;;;8.80;99.90;;;;;;5095285;28;20246;-73
2022/04/24 05:52:35;;;;;;;27.03;24.23;;;8.80;99.90;;;;;;5095466;28;20196;-73
2022/04/24 05:55:03;;;;;;;27.10;24.13;;;8.80;99.90;;;;;;5095331;28;20277;-73
2022/04/24 05:57:30;;;;;;;25.93;23.10;;;8.80;99.90;;;;;;5095271;28;20249;-73
2022/04/24 05:59:57;;;;;;;26.27;23.47;;;8.80;99.90;;;;;;5095148;28;20242;-73
2022/04/24 06:02:24;;;;;;;27.47;24.57;;;8.80;99.90;;;;;;5095077;28;20228;-73
2022/04/24 06:04:51;;;;;;;28.17;25.17;;;8.80;99.90;;;;;;5094989;28;20713;-73
2022/04/24 06:07:17;;;;;;;27.63;24.60;;;8.80;99.90;;;;;;5095166;28;20206;-73
2022/04/24 06:09:44;;;;;;;28.17;25.17;;;8.70;99.90;;;;;;5095074;28;20257;-73
2022/04/24 06:12:12;;;;;;;28.53;25.53;;;8.80;99.90;;;;;;5095045;28;20200;-74
2022/04/24 06:14:38;;;;;;;29.13;26.03;;;8.70;99.90;;;;;;5094664;28;20709;-74
2022/04/24 06:17:05;;;;;;;27.97;24.93;;;8.70;99.90;;;;;;5094851;28;20245;-73
2022/04/24 06:19:32;;;;;;;30.50;26.27;;;8.60;99.90;;;;;;5094733;28;20205;-73
2022/04/24 06:21:59;;;;;;;31.90;28.00;;;8.60;99.90;;;;;;5094827;28;20267;-73
2022/04/24 06:24:26;;;;;;;33.50;27.73;;;8.60;99.90;;;;;;5094513;28;20251;-73
2022/04/24 06:26:52;;;;;;;29.23;26.07;;;8.50;99.90;;;;;;5094536;28;20207;-73
2022/04/24 06:29:20;;;;;;;32.10;28.17;;;8.50;99.90;;;;;;5094699;28;20262;-72
2022/04/24 06:31:47;;;;;;;31.53;26.93;;;8.50;99.90;;;;;;5094413;28;20253;-72
2022/04/24 06:34:13;;;;;;;33.20;27.87;;;8.30;99.90;;;;;;5094383;28;20216;-72
2022/04/24 06:36:40;;;;;;;33.23;27.77;;;8.30;99.90;;;;;;5093965;28;20254;-72
2022/04/24 06:39:07;;;;;;;33.63;28.87;;;8.20;99.90;;;;;;5094345;28;20196;-72
2022/04/24 06:41:34;;;;;;;37.73;29.70;;;8.10;99.90;;;;;;5094448;28;20249;-72
2022/04/24 06:44:00;;;;;;;38.10;30.43;;;8.00;99.90;;;;;;5094368;28;20208;-72
2022/04/24 06:46:28;;;;;;;41.63;32.03;;;8.00;99.90;;;;;;5094158;28;20253;-72
2022/04/24 06:48:55;;;;;;;37.57;30.50;;;8.00;99.90;;;;;;5094345;28;20245;-72
2022/04/24 06:51:21;;;;;;;37.20;30.57;;;7.90;99.90;;;;;;5094327;28;20651;-72
2022/04/24 06:53:48;;;;;;;41.80;33.23;;;7.90;99.90;;;;;;5094208;28;20198;-72
2022/04/24 06:56:15;;;;;;;148.03;51.13;;;8.00;99.90;;;;;;5094062;28;20220;-72
2022/04/24 06:58:41;;;;;;;43.10;33.90;;;7.90;99.90;;;;;;5094040;28;20655;-72
2022/04/24 07:01:08;;;;;;;47.33;34.63;;;7.90;99.90;;;;;;5093916;28;20253;-72
2022/04/24 07:03:36;;;;;;;43.87;32.73;;;7.80;99.90;;;;;;5094019;28;20200;-72
2022/04/24 07:06:03;;;;;;;39.97;31.77;;;7.60;99.90;;;;;;5094046;28;20196;-72
2022/04/24 07:08:30;;;;;;;26.40;21.47;;;7.60;99.90;;;;;;5093825;28;20385;-71
2022/04/24 07:10:57;;;;;;;19.07;16.17;;;7.30;99.90;;;;;;5094111;28;20196;-71
2022/04/24 07:13:24;;;;;;;15.53;13.10;;;7.10;99.90;;;;;;5093895;28;20644;-71
2022/04/24 07:15:51;;;;;;;9.90;8.90;;;6.90;99.90;;;;;;5093745;28;20224;-72
2022/04/24 07:18:18;;;;;;;10.47;7.83;;;6.80;99.90;;;;;;5093911;28;20223;-71
2022/04/24 07:20:46;;;;;;;8.17;6.73;;;6.70;99.90;;;;;;5094060;28;20200;-71
2022/04/24 07:23:17;;;;;;;12.27;7.40;;;6.60;99.90;;;;;;5095510;28;20293;-78
2022/04/24 07:25:44;;;;;;;6.90;6.20;;;6.60;99.90;;;;;;5094040;28;20664;-71
2022/04/24 07:28:11;;;;;;;6.10;5.13;;;6.60;99.90;;;;;;5093670;28;20655;-72
2022/04/24 07:30:38;;;;;;;6.07;4.63;;;6.70;99.90;;;;;;5093672;28;20705;-71
2022/04/24 07:33:05;;;;;;;5.70;4.30;;;6.60;99.90;;;;;;5093756;28;20196;-71
2022/04/24 07:35:34;;;;;;;6.70;4.17;;;6.60;99.90;;;;;;5093389;28;20228;-71
2022/04/24 07:38:02;;;;;;;6.13;4.77;;;6.60;99.90;;;;;;5093566;28;20196;-71
2022/04/24 07:40:30;;;;;;;5.67;4.07;;;6.60;99.90;;;;;;5093401;28;20196;-70
2022/04/24 07:42:59;;;;;;;7.43;4.50;;;6.60;99.90;;;;;;5093629;28;20201;-71
2022/04/24 07:45:28;;;;;;;6.60;3.60;;;6.60;99.90;;;;;;5093694;28;20246;-71
2022/04/24 07:47:55;;;;;;;16.27;8.37;;;6.70;99.90;;;;;;5093902;28;20230;-71
2022/04/24 07:50:23;;;;;;;3.80;3.33;;;6.60;99.90;;;;;;5093378;28;20204;-71
2022/04/24 07:52:52;;;;;;;3.07;2.70;;;6.60;99.90;;;;;;5093632;28;20201;-71
2022/04/24 07:55:23;;;;;;;2.37;1.80;;;6.60;99.90;;;;;;5093329;28;20266;-70
2022/04/24 08:00:33;;;;;;;2.40;2.00;;;6.30;99.90;;;;;;5538202;22;20275;-72
2022/04/24 08:03:02;;;;;;;4.10;2.00;;;6.20;99.90;;;;;;5033489;28;20202;-72
2022/04/24 08:05:30;;;;;;;4.43;2.17;;;6.20;99.90;;;;;;5033782;28;20252;-72
2022/04/24 08:07:58;;;;;;;2.73;1.83;;;6.30;99.90;;;;;;5033134;28;20654;-72
2022/04/24 08:10:28;;;;;;;4.00;1.77;;;6.20;99.90;;;;;;5033137;28;20198;-71
2022/04/24 08:12:55;;;;;;;2.03;1.43;;;6.30;99.90;;;;;;5033228;28;20206;-71
2022/04/24 08:15:22;;;;;;;2.57;1.70;;;6.20;99.90;;;;;;5032914;28;20225;-71
2022/04/24 08:17:49;;;;;;;3.57;1.77;;;6.00;99.90;;;;;;5033172;28;20598;-73
2022/04/24 08:20:17;;;;;;;4.10;2.07;;;5.90;99.90;;;;;;5032903;28;20620;-70
2022/04/24 08:22:45;;;;;;;2.63;1.60;;;6.10;99.90;;;;;;5032998;28;20607;-70
2022/04/24 08:25:14;;;;;;;2.47;1.80;;;6.10;99.90;;;;;;5032885;28;20206;-70
2022/04/24 08:27:43;;;;;;;1.70;1.40;;;6.20;99.90;;;;;;5032833;28;20198;-71
2022/04/24 08:30:13;;;;;;;2.43;2.00;;;6.00;99.90;;;;;;5033065;28;20202;-69
2022/04/24 08:32:42;;;;;;;2.67;1.57;;;6.20;99.90;;;;;;5033084;28;20198;-69
2022/04/24 08:35:11;;;;;;;3.07;1.50;;;6.30;99.90;;;;;;5031970;28;20199;-69
2022/04/24 08:37:38;;;;;;;1.73;1.47;;;6.20;99.90;;;;;;5032876;28;20200;-70
2022/04/24 08:40:06;;;;;;;2.80;2.00;;;6.20;99.90;;;;;;5032892;28;20232;-71
2022/04/24 08:42:33;;;;;;;3.23;1.80;;;6.30;99.90;;;;;;5032943;28;20209;-72
2022/04/24 08:45:02;;;;;;;1.87;1.63;;;6.30;99.90;;;;;;5032647;28;20233;-71
2022/04/24 08:47:29;;;;;;;3.10;2.10;;;6.30;99.90;;;;;;5033157;28;20248;-71
2022/04/24 08:49:56;;;;;;;1.20;1.10;;;6.30;99.90;;;;;;5032911;28;20256;-71
2022/04/24 08:52:24;;;;;;;2.47;1.60;;;6.20;99.90;;;;;;5032754;28;20547;-72
2022/04/24 08:54:52;;;;;;;1.73;1.40;;;6.40;99.90;;;;;;5032899;28;20194;-70
2022/04/24 08:57:18;;;;;;;2.40;1.70;;;6.40;99.90;;;;;;5032718;28;20245;-71
2022/04/24 08:59:45;;;;;;;1.90;1.20;;;6.60;99.90;;;;;;5034253;28;20234;-72
2022/04/24 09:02:13;;;;;;;1.20;0.97;;;6.60;99.90;;;;;;5037259;28;20203;-70
2022/04/24 09:04:41;;;;;;;1.67;1.30;;;6.70;99.90;;;;;;5036398;28;20198;-70
2022/04/24 09:07:09;;;;;;;2.73;1.57;;;6.70;99.90;;;;;;5036536;28;20203;-70
2022/04/24 09:09:42;;;;;;;1.87;1.47;;;6.90;99.90;;;;;;5036715;28;20204;-71
2022/04/24 09:12:10;;;;;;;1.10;1.00;;;6.80;99.90;;;;;;5043569;28;20194;-71
2022/04/24 09:14:38;;;;;;;1.50;1.20;;;6.80;99.90;;;;;;5043411;28;20260;-77
2022/04/24 09:17:06;;;;;;;1.43;1.13;;;6.90;99.90;;;;;;5042385;28;20206;-72
2022/04/24 09:19:36;;;;;;;1.30;1.20;;;7.00;99.90;;;;;;5042581;28;20202;-70
2022/04/24 09:22:05;;;;;;;1.60;1.10;;;7.10;99.90;;;;;;5042392;28;20198;-71
2022/04/24 09:24:39;;;;;;;1.50;1.00;;;7.30;99.90;;;;;;5041720;28;20614;-70
2022/04/24 09:27:06;;;;;;;3.00;1.20;;;7.30;99.90;;;;;;5039786;28;20235;-69
2022/04/24 09:29:33;;;;;;;2.70;1.87;;;7.60;99.90;;;;;;5037808;28;20210;-68
2022/04/24 09:32:00;;;;;;;2.00;1.77;;;7.70;99.90;;;;;;5033232;28;20252;-69
2022/04/24 09:34:30;;;;;;;4.10;3.70;;;7.80;99.90;;;;;;5033458;28;20218;-69
2022/04/24 09:37:03;;;;;;;1.53;1.30;;;8.00;99.90;;;;;;5033392;28;20293;-69
2022/04/24 09:39:31;;;;;;;1.37;1.17;;;8.20;99.90;;;;;;5033348;28;20720;-69
2022/04/24 09:42:06;;;;;;;2.30;1.43;;;8.30;99.90;;;;;;5033181;28;20215;-70
2022/04/24 09:44:42;;;;;;;1.60;1.30;;;8.30;99.90;;;;;;5032909;28;20202;-69
2022/04/24 09:47:13;;;;;;;1.50;1.37;;;8.30;99.90;;;;;;5033555;28;20233;-69
2022/04/24 09:49:41;;;;;;;1.97;1.20;;;8.50;99.90;;;;;;5033299;28;20677;-69
2022/04/24 09:52:14;;;;;;;1.20;1.10;;;8.60;99.90;;;;;;5033649;28;20211;-70
2022/04/24 09:54:42;;;;;;;1.17;1.07;;;8.50;99.90;;;;;;5033247;28;20202;-70
2022/04/24 09:57:12;;;;;;;0.93;0.93;;;8.90;99.90;;;;;;5033800;28;20217;-70
2022/04/24 09:59:41;;;;;;;1.80;1.20;;;9.20;99.90;;;;;;5034593;28;20237;-70
2022/04/24 10:02:09;;;;;;;0.93;0.87;;;9.20;99.90;;;;;;5033369;28;20325;-71
2022/04/24 10:04:38;;;;;;;3.53;1.20;;;9.30;99.90;;;;;;5033022;28;20226;-69
2022/04/24 10:07:06;;;;;;;0.80;0.80;;;9.70;99.90;;;;;;5032620;28;20706;-70
2022/04/24 10:09:36;;;;;;;0.77;0.77;;;9.80;99.90;;;;;;5032669;28;20234;-70
2022/04/24 10:12:07;;;;;;;0.73;0.63;;;9.70;99.90;;;;;;5032558;28;20202;-70
2022/04/24 10:14:38;;;;;;;0.80;0.80;;;9.90;99.90;;;;;;5033184;28;20213;-69
2022/04/24 10:17:21;;;;;;;0.60;0.60;;;10.00;99.90;;;;;;5033481;28;20206;-71
2022/04/24 10:20:00;;;;;;;0.70;0.63;;;9.80;99.90;;;;;;5032535;28;20245;-70
2022/04/24 10:22:38;;;;;;;0.73;0.70;;;9.80;99.90;;;;;;5033389;28;20210;-70
2022/04/24 10:25:07;;;;;;;0.80;0.77;;;9.90;99.90;;;;;;5033725;28;20550;-70
2022/04/24 10:27:39;;;;;;;0.60;0.60;;;10.50;99.90;;;;;;5033547;28;20194;-69
2022/04/24 10:30:08;;;;;;;1.13;0.90;;;9.90;99.90;;;;;;5033150;28;20272;-70
2022/04/24 10:32:35;;;;;;;0.90;0.80;;;10.50;99.90;;;;;;5032931;28;20206;-69
2022/04/24 10:35:02;;;;;;;0.77;0.70;;;10.60;99.90;;;;;;5031652;28;20198;-70
2022/04/24 10:37:31;;;;;;;0.47;0.47;;;10.20;99.90;;;;;;5031457;28;20523;-69
2022/04/24 10:39:59;;;;;;;0.57;0.57;;;10.40;99.90;;;;;;5033050;28;20879;-70
2022/04/24 10:42:32;;;;;;;0.60;0.60;;;10.30;99.90;;;;;;5033645;28;20207;-70
2022/04/24 10:45:08;;;;;;;1.10;0.67;;;10.80;99.90;;;;;;5033608;28;20244;-71
2022/04/24 10:47:52;;;;;;;1.13;0.60;;;11.10;99.90;;;;;;5033704;28;20260;-69
2022/04/24 10:50:20;;;;;;;0.30;0.30;;;10.70;99.90;;;;;;5033497;28;20198;-70
2022/04/24 10:52:48;;;;;;;0.97;0.87;;;10.70;99.90;;;;;;5034358;28;20206;-70
2022/04/24 10:55:16;;;;;;;1.27;0.90;;;10.60;99.90;;;;;;5033757;28;20198;-70
2022/04/24 10:57:47;;;;;;;0.70;0.70;;;10.70;99.90;;;;;;5033552;28;20650;-71
2022/04/24 11:00:19;;;;;;;0.90;0.90;;;10.90;99.90;;;;;;5033211;28;20230;-70
2022/04/24 11:02:47;;;;;;;1.10;0.90;;;10.70;99.90;;;;;;5032985;28;20213;-70
2022/04/24 11:05:20;;;;;;;0.90;0.90;;;10.70;99.90;;;;;;5033522;28;20195;-71
2022/04/24 11:07:47;;;;;;;0.70;0.70;;;10.30;99.90;;;;;;5033847;28;20202;-71
2022/04/24 11:10:20;;;;;;;0.90;0.80;;;10.30;99.90;;;;;;5039234;28;20202;-71
2022/04/24 11:12:51;;;;;;;1.23;0.70;;;10.10;99.90;;;;;;5034075;28;20194;-70
2022/04/24 11:15:18;;;;;;;0.80;0.80;;;10.20;99.90;;;;;;5034235;28;20202;-73
2022/04/24 11:17:45;;;;;;;0.80;0.80;;;10.00;99.90;;;;;;5033878;28;20658;-75
2022/04/24 11:20:13;;;;;;;1.07;0.97;;;9.90;99.90;;;;;;5034678;28;20551;-73
2022/04/24 11:22:50;;;;;;;0.57;0.57;;;9.90;99.90;;;;;;5033893;28;20672;-74
2022/04/24 11:25:19;;;;;;;2.00;1.03;;;9.80;99.90;;;;;;5034043;28;20650;-73
2022/04/24 11:27:50;;;;;;;1.10;0.90;;;9.70;99.90;;;;;;5033672;28;20266;-74
2022/04/24 11:30:18;;;;;;;0.57;0.57;;;9.70;99.90;;;;;;5033945;28;20597;-73
2022/04/24 11:32:57;;;;;;;0.80;0.80;;;9.50;99.90;;;;;;5034791;28;20203;-74
2022/04/24 11:35:25;;;;;;;1.07;0.90;;;9.50;99.90;;;;;;5034371;28;20276;-75
2022/04/24 11:37:53;;;;;;;0.90;0.90;;;9.40;99.90;;;;;;5033888;28;20230;-75
2022/04/24 11:40:20;;;;;;;1.07;0.97;;;9.50;99.90;;;;;;5033836;28;20256;-75
2022/04/24 11:42:48;;;;;;;1.00;0.90;;;9.50;99.90;;;;;;5034166;28;20198;-75
2022/04/24 11:50:51;;;;;;;0.70;0.70;;;9.30;99.90;;;;;;5033969;28;20201;-73
2022/04/24 11:53:19;;;;;;;0.83;0.77;;;9.20;99.90;;;;;;5033692;28;20202;-74
2022/04/24 11:56:04;;;;;;;0.67;0.67;;;9.30;99.90;;;;;;5034237;28;20202;-74
2022/04/24 11:58:39;;;;;;;1.73;1.33;;;9.40;99.90;;;;;;5033851;28;20206;-74
2022/04/24 12:01:08;;;;;;;1.57;1.10;;;9.30;99.90;;;;;;5033463;28;20225;-74
2022/04/24 12:03:37;;;;;;;1.43;0.90;;;9.30;99.90;;;;;;5033527;28;20197;-73
2022/04/24 12:06:05;;;;;;;0.80;0.80;;;9.30;99.90;;;;;;5033671;28;20234;-74
2022/04/24 12:08:43;;;;;;;2.27;1.10;;;9.20;99.90;;;;;;5033937;28;20198;-74
2022/04/24 12:11:11;;;;;;;0.77;0.77;;;9.00;99.90;;;;;;5034279;28;20198;-74
2022/04/24 12:13:39;;;;;;;1.37;1.10;;;9.10;99.90;;;;;;5034089;28;20202;-73
2022/04/24 12:16:05;;;;;;;0.80;0.80;;;9.10;99.90;;;;;;5033934;28;20255;-74
2022/04/24 12:18:32;;;;;;;1.10;1.00;;;9.10;99.90;;;;;;5034131;28;20657;-74
2022/04/24 12:20:59;;;;;;;1.10;1.00;;;8.90;99.90;;;;;;5033837;28;20209;-73
2022/04/24 12:23:26;;;;;;;2.10;1.57;;;8.90;99.90;;;;;;5034081;28;20202;-73
2022/04/24 12:25:55;;;;;;;1.03;1.00;;;8.90;99.90;;;;;;5033985;28;20244;-72
2022/04/24 12:28:31;;;;;;;1.00;1.00;;;8.90;99.90;;;;;;5035042;28;20209;-73
2022/04/24 12:31:01;;;;;;;0.77;0.77;;;8.90;99.90;;;;;;5036757;28;20195;-73
2022/04/24 12:33:28;;;;;;;1.10;1.00;;;8.70;99.90;;;;;;5034475;28;20208;-73
2022/04/24 12:35:55;;;;;;;1.33;0.90;;;8.70;99.90;;;;;;5039238;28;20202;-73
2022/04/24 12:38:23;;;;;;;1.40;1.10;;;8.70;99.90;;;;;;5045343;28;20198;-72
2022/04/24 12:40:57;;;;;;;1.13;1.03;;;8.70;99.90;;;;;;5045885;28;20226;-74
2022/04/24 12:43:26;;;;;;;1.43;1.10;;;8.70;99.90;;;;;;5037321;28;20205;-72
2022/04/24 12:45:53;;;;;;;2.30;0.90;;;8.70;99.90;;;;;;5042155;28;20558;-74
2022/04/24 12:48:21;;;;;;;1.30;1.20;;;8.70;99.90;;;;;;5045627;28;20221;-74
2022/04/24 12:50:48;;;;;;;1.23;1.13;;;8.80;99.90;;;;;;5042715;28;20202;-74
2022/04/24 12:53:16;;;;;;;0.90;0.90;;;8.80;99.90;;;;;;5047018;28;20200;-71
2022/04/24 12:55:42;;;;;;;0.80;0.80;;;8.80;99.90;;;;;;5042379;28;20198;-74
2022/04/24 12:58:14;;;;;;;1.27;1.17;;;8.80;99.90;;;;;;5045582;28;20206;-75